Time;durP1;ratioP1;P1;durP2;ratioP2;P2;SDS_P1;SDS_P2;PMS_P1;PMS_P2;Temp;Humidity;BMP_temperature;BMP_pressure;BME280_temperature;BME280_humidity;BME280_pressure;Samples;Min_cycle;Max_cycle;Signal;HPM_P1;HPM_P2
2023/04/08 00:02:18;;;;;;;36.83;19.63;;;;;;;6.02;74.89;95250.25;4995500;28;20234;-71
2023/04/08 00:04:44;;;;;;;37.07;20.03;;;;;;;5.99;74.29;95246.19;5019426;28;20299;-71
2023/04/08 00:07:09;;;;;;;42.77;20.50;;;;;;;5.97;75.45;95240.34;5018828;28;20233;-70
2023/04/08 00:09:35;;;;;;;38.03;20.00;;;;;;;5.94;75.45;95248.50;5015920;28;20234;-72
2023/04/08 00:12:00;;;;;;;36.53;19.60;;;;;;;5.98;74.84;95251.56;5023149;28;20257;-72
2023/04/08 00:14:26;;;;;;;37.00;19.67;;;;;;;6.02;75.02;95247.66;5014425;28;20729;-71
2023/04/08 00:16:51;;;;;;;36.67;18.80;;;;;;;5.93;74.57;95246.84;5008370;28;20230;-74
2023/04/08 00:19:17;;;;;;;38.70;20.50;;;;;;;5.81;74.86;95253.31;5000146;28;20233;-72
2023/04/08 00:21:42;;;;;;;36.03;19.50;;;;;;;5.90;73.90;95248.94;5003226;28;20647;-72
2023/04/08 00:24:09;;;;;;;38.20;19.60;;;;;;;5.93;73.66;95244.25;5010345;28;20257;-71
2023/04/08 00:26:35;;;;;;;33.13;18.30;;;;;;;5.89;73.18;95242.97;5016896;28;20620;-72
2023/04/08 00:29:00;;;;;;;40.97;19.10;;;;;;;5.81;73.06;95245.53;5000692;28;20233;-72
2023/04/08 00:31:26;;;;;;;40.03;19.17;;;;;;;5.81;73.48;95242.09;5023273;28;20236;-71
2023/04/08 00:33:51;;;;;;;35.17;18.43;;;;;;;5.73;74.87;95249.91;4999930;28;20302;-72
2023/04/08 00:36:18;;;;;;;34.37;17.50;;;;;;;5.81;73.40;95252.50;5016290;28;20249;-72
2023/04/08 00:38:43;;;;;;;34.13;17.53;;;;;;;5.82;72.09;95254.13;5015822;28;20725;-70
2023/04/08 00:41:09;;;;;;;46.97;22.17;;;;;;;5.67;74.02;95246.19;5009633;28;20226;-70
2023/04/08 00:43:34;;;;;;;49.87;23.97;;;;;;;5.23;76.18;95252.59;5024222;28;20230;-70
2023/04/08 00:46:00;;;;;;;51.27;25.23;;;;;;;5.41;76.35;95261.88;5013607;28;20237;-71
2023/04/08 00:48:25;;;;;;;48.67;24.80;;;;;;;5.41;76.42;95254.09;5014925;28;20255;-70
2023/04/08 00:50:51;;;;;;;50.13;24.43;;;;;;;5.69;75.72;95251.19;5006488;28;20226;-70
2023/04/08 00:53:17;;;;;;;46.40;23.70;;;;;;;5.52;76.54;95246.97;5002167;28;20222;-70
2023/04/08 00:55:43;;;;;;;46.90;23.77;;;;;;;5.73;76.41;95261.09;5021031;28;20233;-70
2023/04/08 00:58:08;;;;;;;44.70;23.90;;;;;;;5.59;76.50;95260.94;5016958;28;20738;-72
2023/04/08 01:00:34;;;;;;;43.60;23.07;;;;;;;5.55;76.83;95255.25;5029652;28;20608;-71
2023/04/08 01:03:05;;;;;;;43.63;23.10;;;;;;;5.40;77.90;95257.66;5029871;28;20248;-71
2023/04/08 01:05:43;;;;;;;44.43;22.43;;;;;;;5.48;78.28;95262.06;5029137;28;20716;-71
2023/04/08 01:08:08;;;;;;;41.27;21.77;;;;;;;5.51;78.46;95259.16;5030298;28;20257;-71
2023/04/08 01:10:34;;;;;;;45.00;22.17;;;;;;;5.57;78.64;95260.25;5015094;28;20226;-70
2023/04/08 01:13:04;;;;;;;44.73;21.90;;;;;;;5.58;79.10;95257.53;5029423;28;20259;-71
2023/04/08 01:15:30;;;;;;;42.87;21.43;;;;;;;5.60;78.81;95257.34;5015764;28;20625;-71
2023/04/08 01:17:56;;;;;;;39.33;20.70;;;;;;;5.66;77.68;95269.72;5003220;28;20245;-70
2023/04/08 01:20:25;;;;;;;38.43;20.07;;;;;;;5.62;78.18;95252.81;5027889;28;20830;-71
2023/04/08 01:22:59;;;;;;;39.10;20.27;;;;;;;5.67;77.51;95260.94;5006466;28;20272;-70
2023/04/08 01:25:33;;;;;;;37.03;19.83;;;;;;;5.70;78.75;95261.44;5034275;28;20710;-71
2023/04/08 01:28:12;;;;;;;39.67;20.07;;;;;;;5.78;77.25;95260.63;5032530;28;20237;-71
2023/04/08 01:30:38;;;;;;;37.60;19.70;;;;;;;5.81;77.64;95262.88;5019868;28;20237;-70
2023/04/08 01:33:04;;;;;;;38.17;19.47;;;;;;;5.80;78.02;95261.28;5015925;28;20237;-70
2023/04/08 01:35:29;;;;;;;39.63;19.90;;;;;;;5.78;77.81;95258.81;5019381;28;20236;-70
2023/04/08 01:37:55;;;;;;;38.30;19.43;;;;;;;5.80;78.16;95261.28;5014226;28;20288;-71
2023/04/08 01:40:20;;;;;;;40.10;20.60;;;;;;;5.60;80.02;95258.19;5016107;28;20759;-72
2023/04/08 01:42:49;;;;;;;39.73;20.70;;;;;;;5.57;80.20;95248.09;5011125;28;20268;-71
2023/04/08 01:45:15;;;;;;;38.07;19.47;;;;;;;5.44;79.45;95263.34;5010383;28;20320;-71
2023/04/08 01:47:40;;;;;;;37.00;20.10;;;;;;;5.47;79.97;95261.22;5017105;28;20376;-71
2023/04/08 01:50:07;;;;;;;36.13;19.23;;;;;;;5.42;81.00;95271.28;5009206;28;20222;-70
2023/04/08 01:52:33;;;;;;;36.17;19.50;;;;;;;5.50;80.20;95267.06;5033566;28;20280;-71
2023/04/08 01:54:59;;;;;;;36.00;19.07;;;;;;;5.55;78.99;95270.81;5018339;28;20234;-72
2023/04/08 01:57:26;;;;;;;33.87;18.20;;;;;;;5.54;78.56;95268.41;5018129;28;20313;-71
2023/04/08 01:59:52;;;;;;;36.00;18.60;;;;;;;5.56;77.44;95274.25;5016830;28;20229;-70
2023/04/08 02:02:19;;;;;;;34.07;17.63;;;;;;;5.51;77.97;95272.13;5016917;28;20261;-72
2023/04/08 02:04:45;;;;;;;33.43;18.17;;;;;;;5.61;78.21;95274.56;5017237;28;20233;-71
2023/04/08 02:07:10;;;;;;;34.30;18.03;;;;;;;5.54;78.99;95281.38;5041441;28;20237;-71
2023/04/08 02:09:36;;;;;;;34.47;18.03;;;;;;;5.49;79.11;95286.22;5015373;28;20339;-71
2023/04/08 02:12:01;;;;;;;34.63;18.20;;;;;;;5.57;79.97;95288.81;5008504;28;20612;-71
2023/04/08 02:14:27;;;;;;;35.73;18.13;;;;;;;5.53;79.78;95287.53;5021608;28;20225;-72
2023/04/08 02:16:54;;;;;;;40.83;20.33;;;;;;;5.64;80.93;95287.22;5001087;28;20256;-72
2023/04/08 02:19:25;;;;;;;41.50;20.43;;;;;;;5.57;82.44;95291.41;5000805;28;20317;-71
2023/04/08 02:22:01;;;;;;;42.23;21.57;;;;;;;5.56;80.84;95285.44;4999843;28;20237;-72
2023/04/08 02:24:27;;;;;;;45.27;23.40;;;;;;;5.56;83.13;95292.41;5005143;28;20307;-71
2023/04/08 02:26:52;;;;;;;47.97;23.40;;;;;;;5.57;80.56;95291.41;4998425;28;20716;-72
2023/04/08 02:29:18;;;;;;;49.03;24.90;;;;;;;5.53;81.20;95287.53;5015316;28;20264;-71
2023/04/08 02:31:44;;;;;;;46.67;24.07;;;;;;;5.45;83.76;95288.31;5024426;28;20233;-71
2023/04/08 02:34:10;;;;;;;45.53;23.07;;;;;;;5.37;84.01;95288.31;5021402;28;20328;-71
2023/04/08 02:36:36;;;;;;;45.17;22.50;;;;;;;5.35;82.93;95290.22;5019286;28;20299;-71
2023/04/08 02:39:02;;;;;;;40.17;20.57;;;;;;;5.18;82.60;95286.78;5007609;28;20319;-71
2023/04/08 02:41:29;;;;;;;38.47;20.13;;;;;;;5.18;81.53;95286.00;5025404;28;20847;-70
2023/04/08 02:43:54;;;;;;;38.83;20.47;;;;;;;5.22;82.43;95288.13;5025587;28;20225;-71
2023/04/08 02:46:20;;;;;;;42.53;21.83;;;;;;;5.25;83.37;95287.78;5034764;28;20217;-71
2023/04/08 02:48:45;;;;;;;39.60;21.43;;;;;;;5.37;82.51;95283.91;5019420;28;20260;-72
2023/04/08 02:51:11;;;;;;;40.60;21.73;;;;;;;5.36;83.67;95287.50;5001602;28;20237;-72
2023/04/08 02:53:36;;;;;;;41.33;21.23;;;;;;;5.39;81.96;95282.00;5021039;28;20226;-71
2023/04/08 02:56:02;;;;;;;44.10;22.23;;;;;;;5.42;83.41;95283.47;5015971;28;20302;-72
2023/04/08 02:58:27;;;;;;;39.23;21.47;;;;;;;5.35;83.50;95283.28;5016072;28;20249;-71
2023/04/08 03:00:53;;;;;;;38.07;20.73;;;;;;;5.33;82.93;95284.41;5013384;28;20304;-71
2023/04/08 03:03:18;;;;;;;42.53;22.00;;;;;;;5.41;81.90;95287.84;5019262;28;20248;-71
2023/04/08 03:05:44;;;;;;;41.57;21.53;;;;;;;5.54;82.18;95291.75;5022181;28;20232;-72
2023/04/08 03:08:09;;;;;;;43.50;21.97;;;;;;;5.42;81.88;95294.63;5021521;28;20247;-72
2023/04/08 03:10:35;;;;;;;42.43;22.23;;;;;;;5.36;82.60;95284.09;5024299;28;20244;-72
2023/04/08 03:13:00;;;;;;;44.17;22.23;;;;;;;5.35;82.88;95293.66;5023022;28;20230;-72
2023/04/08 03:15:26;;;;;;;42.93;22.43;;;;;;;5.30;83.05;95282.94;4993320;28;20237;-70
2023/04/08 03:17:51;;;;;;;44.20;22.70;;;;;;;5.17;83.21;95284.34;4992494;28;20328;-71
2023/04/08 03:20:17;;;;;;;41.93;22.17;;;;;;;5.25;83.48;95280.00;5009492;28;20621;-71
2023/04/08 03:22:42;;;;;;;45.60;22.80;;;;;;;5.42;82.85;95273.09;5025354;28;20299;-71
2023/04/08 03:25:08;;;;;;;43.93;22.40;;;;;;;5.21;82.80;95278.69;5028872;28;20242;-70
2023/04/08 03:27:33;;;;;;;38.43;21.77;;;;;;;5.18;84.84;95280.81;5013378;28;20242;-71
2023/04/08 03:29:59;;;;;;;41.93;22.37;;;;;;;5.24;84.35;95288.75;5002478;28;20242;-71
2023/04/08 03:32:24;;;;;;;42.77;21.00;;;;;;;5.29;83.61;95285.69;5018787;28;20318;-71
2023/04/08 03:34:50;;;;;;;42.67;21.70;;;;;;;5.42;83.64;95283.47;5022608;28;20229;-71
2023/04/08 03:37:19;;;;;;;40.73;21.50;;;;;;;5.42;83.52;95294.63;4994826;28;20233;-71
2023/04/08 03:39:45;;;;;;;45.60;22.57;;;;;;;5.32;82.73;95298.34;4998470;28;20223;-70
2023/04/08 03:42:10;;;;;;;42.10;21.13;;;;;;;5.33;84.08;95295.59;4996668;28;20234;-71
2023/04/08 03:44:36;;;;;;;42.00;21.93;;;;;;;5.27;83.03;95293.66;5023618;28;20295;-70
2023/04/08 03:47:01;;;;;;;41.13;21.50;;;;;;;5.26;84.34;95291.19;5012124;28;20232;-71
2023/04/08 03:49:27;;;;;;;41.37;21.17;;;;;;;5.18;85.12;95289.38;5012557;28;20233;-71
2023/04/08 03:51:53;;;;;;;40.50;21.00;;;;;;;5.17;84.73;95287.78;5002131;28;20323;-70
2023/04/08 03:54:18;;;;;;;42.03;21.23;;;;;;;5.18;84.99;95286.00;4999048;28;20285;-71
2023/04/08 03:56:44;;;;;;;41.43;20.53;;;;;;;5.20;83.61;95295.25;5003574;28;20230;-71
2023/04/08 03:59:09;;;;;;;41.47;21.40;;;;;;;5.31;81.51;95287.16;5028519;28;20236;-71
2023/04/08 04:01:34;;;;;;;41.70;21.03;;;;;;;5.26;83.79;95283.41;5023596;28;20292;-71
2023/04/08 04:04:00;;;;;;;39.60;20.77;;;;;;;5.29;82.35;95283.91;5030623;28;20624;-71
2023/04/08 04:06:26;;;;;;;38.93;20.50;;;;;;;5.24;82.29;95285.34;5030109;28;20454;-71
2023/04/08 04:08:53;;;;;;;38.07;19.47;;;;;;;5.26;81.62;95280.81;5003410;28;20233;-71
2023/04/08 04:11:20;;;;;;;39.17;20.20;;;;;;;5.27;81.42;95285.03;5013664;28;20245;-71
2023/04/08 04:13:45;;;;;;;37.37;20.00;;;;;;;5.34;81.77;95286.84;5011303;28;20230;-71
2023/04/08 04:16:11;;;;;;;38.53;20.20;;;;;;;5.39;81.52;95283.78;5005624;28;20266;-71
2023/04/08 04:18:36;;;;;;;36.43;19.93;;;;;;;5.43;80.71;95296.28;4999105;28;20226;-71
2023/04/08 04:21:05;;;;;;;38.87;20.13;;;;;;;5.41;81.07;95297.41;5007326;28;20615;-71
2023/04/08 04:23:30;;;;;;;38.33;19.43;;;;;;;5.30;81.13;95300.31;5030978;28;20237;-71
2023/04/08 04:25:56;;;;;;;36.23;19.53;;;;;;;5.24;80.73;95306.94;5000822;28;20267;-71
2023/04/08 04:28:21;;;;;;;36.80;18.73;;;;;;;5.16;82.32;95306.88;4994323;28;20266;-72
2023/04/08 04:30:47;;;;;;;35.33;18.70;;;;;;;5.21;83.53;95301.22;5031912;28;20261;-71
2023/04/08 04:33:12;;;;;;;36.63;19.13;;;;;;;5.17;82.42;95305.13;4996039;28;20308;-71
2023/04/08 04:35:38;;;;;;;37.67;19.37;;;;;;;5.23;81.21;95305.28;5000462;28;20236;-71
2023/04/08 04:38:09;;;;;;;35.97;19.60;;;;;;;5.24;82.64;95300.91;5019226;28;20263;-71
2023/04/08 04:40:35;;;;;;;41.20;19.40;;;;;;;5.37;81.79;95309.88;5003142;28;20749;-71
2023/04/08 04:43:00;;;;;;;34.80;18.70;;;;;;;5.28;82.56;95303.03;5012436;28;20269;-70
2023/04/08 04:45:26;;;;;;;36.70;18.63;;;;;;;5.32;82.61;95309.56;5017759;28;20228;-71
2023/04/08 04:47:51;;;;;;;35.47;18.90;;;;;;;5.37;84.13;95311.69;5023196;28;20259;-71
2023/04/08 04:50:17;;;;;;;36.60;19.13;;;;;;;5.44;83.56;95297.09;5011565;28;20230;-69
2023/04/08 04:52:42;;;;;;;34.37;18.87;;;;;;;5.50;84.33;95298.22;5031014;28;20792;-71
2023/04/08 04:55:08;;;;;;;39.37;19.47;;;;;;;5.41;84.34;95293.03;5003886;28;20238;-71
2023/04/08 04:57:34;;;;;;;36.17;19.00;;;;;;;5.41;84.96;95305.19;5029524;28;20237;-70
2023/04/08 04:59:59;;;;;;;35.30;17.83;;;;;;;5.37;80.35;95304.69;4997641;28;20254;-71
2023/04/08 05:02:25;;;;;;;33.70;18.23;;;;;;;5.52;82.21;95306.69;5024310;28;20226;-71
2023/04/08 05:04:52;;;;;;;31.13;15.60;;;;;;;5.41;77.19;95311.19;5013216;28;20766;-71
2023/04/08 05:07:18;;;;;;;30.83;16.10;;;;;;;5.30;77.25;95316.66;4999979;28;20729;-73
2023/04/08 05:09:43;;;;;;;27.20;14.93;;;;;;;5.42;76.96;95310.22;5016392;28;20238;-71
2023/04/08 05:12:09;;;;;;;29.97;15.83;;;;;;;5.67;76.80;95307.66;5016664;28;20237;-71
2023/04/08 05:14:35;;;;;;;27.90;14.87;;;;;;;5.66;75.83;95317.22;5006723;28;20723;-70
2023/04/08 05:17:00;;;;;;;29.23;14.67;;;;;;;5.59;75.95;95311.06;5035882;28;20276;-71
2023/04/08 05:19:26;;;;;;;26.23;14.43;;;;;;;5.51;76.61;95313.66;5006655;28;20283;-71
2023/04/08 05:21:51;;;;;;;25.40;13.23;;;;;;;5.61;76.41;95308.31;5013457;28;20666;-71
2023/04/08 05:24:17;;;;;;;24.23;13.63;;;;;;;5.69;77.00;95316.94;5009528;28;20229;-71
2023/04/08 05:26:42;;;;;;;25.10;13.23;;;;;;;5.69;76.02;95310.91;5033214;28;20339;-71
2023/04/08 05:29:08;;;;;;;24.60;13.50;;;;;;;5.52;77.27;95309.28;5005805;28;20249;-70
2023/04/08 05:31:33;;;;;;;22.37;13.27;;;;;;;5.67;77.68;95318.06;5015654;28;20233;-70
2023/04/08 05:33:58;;;;;;;26.70;13.67;;;;;;;5.81;76.71;95314.81;5037872;28;20225;-71
2023/04/08 05:36:25;;;;;;;27.93;13.80;;;;;;;5.95;75.79;95316.81;5024412;28;20601;-70
2023/04/08 05:38:50;;;;;;;26.13;13.57;;;;;;;5.84;75.96;95314.50;5039711;28;20233;-70
2023/04/08 05:41:16;;;;;;;26.43;13.93;;;;;;;5.86;76.33;95315.19;5029647;28;20320;-70
2023/04/08 05:43:41;;;;;;;28.23;14.20;;;;;;;5.89;76.76;95309.69;5019827;28;20245;-71
2023/04/08 05:46:07;;;;;;;27.43;13.93;;;;;;;6.19;76.02;95314.22;5014027;28;20620;-71
2023/04/08 05:48:33;;;;;;;26.13;14.27;;;;;;;6.20;75.39;95313.25;5020971;28;20291;-71
2023/04/08 05:50:59;;;;;;;23.37;13.63;;;;;;;6.50;73.12;95311.75;5017282;28;20235;-71
2023/04/08 05:53:25;;;;;;;24.83;14.40;;;;;;;6.56;73.98;95305.91;5023613;28;20233;-69
2023/04/08 05:55:50;;;;;;;28.20;14.53;;;;;;;6.61;73.70;95304.47;5026048;28;20234;-69
2023/04/08 05:58:16;;;;;;;22.27;13.60;;;;;;;6.57;74.25;95308.34;5017617;28;20775;-70
2023/04/08 06:00:41;;;;;;;26.37;14.30;;;;;;;6.82;74.41;95305.69;5005035;28;20298;-71
2023/04/08 06:03:07;;;;;;;26.17;14.83;;;;;;;6.92;71.68;95307.13;5018132;28;20248;-72
2023/04/08 06:05:32;;;;;;;27.73;14.40;;;;;;;6.74;73.28;95309.94;5004051;28;20234;-70
2023/04/08 06:07:58;;;;;;;25.60;14.93;;;;;;;6.72;72.73;95304.09;5020312;28;20226;-72
2023/04/08 06:10:23;;;;;;;28.23;14.37;;;;;;;6.70;73.74;95300.03;5019103;28;20276;-72
2023/04/08 06:12:49;;;;;;;27.83;14.87;;;;;;;6.50;74.87;95307.38;5018157;28;21062;-71
2023/04/08 06:15:15;;;;;;;28.73;14.47;;;;;;;6.53;75.30;95298.44;5004314;28;20288;-71
2023/04/08 06:17:40;;;;;;;32.10;14.90;;;;;;;6.56;75.99;95301.53;5017071;28;20264;-71
2023/04/08 06:20:08;;;;;;;32.03;14.37;;;;;;;6.50;75.33;95296.16;5016381;28;20304;-71
2023/04/08 06:22:35;;;;;;;28.37;15.23;;;;;;;6.69;76.00;95307.00;5033837;28;21050;-72
2023/04/08 06:25:00;;;;;;;28.70;15.97;;;;;;;6.90;75.38;95303.88;5031574;28;20626;-71
2023/04/08 06:27:26;;;;;;;32.97;15.63;;;;;;;6.95;74.79;95300.78;5018733;28;20238;-71
2023/04/08 06:29:52;;;;;;;30.93;16.57;;;;;;;7.15;74.01;95307.19;5016269;28;20316;-71
2023/04/08 06:32:18;;;;;;;28.73;16.50;;;;;;;7.59;72.84;95299.66;5030301;28;20248;-70
2023/04/08 06:34:47;;;;;;;31.13;15.93;;;;;;;7.67;72.96;95312.63;5014983;28;20233;-71
2023/04/08 06:37:12;;;;;;;33.23;15.67;;;;;;;7.61;73.23;95302.91;5018101;28;20265;-71
2023/04/08 06:39:38;;;;;;;31.00;16.60;;;;;;;7.15;75.03;95304.59;5002524;28;20233;-71
2023/04/08 06:42:03;;;;;;;30.70;17.00;;;;;;;7.14;76.42;95311.59;5018259;28;20237;-71
2023/04/08 06:44:29;;;;;;;33.07;16.60;;;;;;;7.33;75.24;95310.41;5025588;28;20229;-71
2023/04/08 06:46:54;;;;;;;29.73;15.87;;;;;;;7.19;75.87;95309.28;5018816;28;20230;-71
2023/04/08 06:49:20;;;;;;;31.00;15.83;;;;;;;7.38;75.43;95313.28;4994944;28;20268;-71
2023/04/08 06:51:46;;;;;;;30.23;15.40;;;;;;;7.46;76.66;95315.84;5011017;28;20288;-71
2023/04/08 06:54:11;;;;;;;34.17;16.37;;;;;;;7.31;76.17;95309.72;5008964;28;23209;-72
2023/04/08 06:56:37;;;;;;;33.87;16.30;;;;;;;7.39;77.13;95309.69;5014857;28;20237;-71
2023/04/08 06:59:03;;;;;;;28.97;15.83;;;;;;;7.60;75.96;95315.13;5040226;28;20244;-72
2023/04/08 07:01:29;;;;;;;35.33;16.57;;;;;;;7.50;76.99;95309.31;5022494;28;20268;-71
2023/04/08 07:03:57;;;;;;;31.33;16.93;;;;;;;7.67;75.98;95304.81;5017717;28;20324;-71
2023/04/08 07:06:22;;;;;;;32.33;17.03;;;;;;;7.68;75.98;95317.69;5009301;28;20308;-71
2023/04/08 07:08:48;;;;;;;33.03;15.87;;;;;;;7.74;75.55;95306.56;5013927;28;20226;-71
2023/04/08 07:11:13;;;;;;;30.40;15.70;;;;;;;7.46;75.15;95316.66;5039396;28;20234;-71
2023/04/08 07:13:39;;;;;;;28.83;15.70;;;;;;;7.42;76.22;95315.38;5037355;28;20244;-71
2023/04/08 07:16:05;;;;;;;32.03;15.93;;;;;;;7.76;74.90;95317.63;5025107;28;20237;-71
2023/04/08 07:18:31;;;;;;;32.97;16.30;;;;;;;7.92;73.38;95314.09;5005629;28;20234;-69
2023/04/08 07:20:57;;;;;;;32.17;16.87;;;;;;;8.05;73.82;95319.53;5017736;28;20230;-71
2023/04/08 07:23:22;;;;;;;30.33;16.77;;;;;;;7.92;74.59;95325.34;5046174;28;20233;-71
2023/04/08 07:25:48;;;;;;;31.90;16.03;;;;;;;7.94;74.95;95325.16;4999023;28;21035;-71
2023/04/08 07:28:13;;;;;;;27.93;15.83;;;;;;;8.21;72.68;95322.06;5016876;28;20784;-71
2023/04/08 07:30:39;;;;;;;25.40;15.47;;;;;;;8.12;73.06;95323.06;5036493;28;20232;-72
2023/04/08 07:33:04;;;;;;;26.73;14.83;;;;;;;8.28;74.22;95327.41;5019852;28;20238;-71
2023/04/08 07:35:30;;;;;;;28.33;15.23;;;;;;;8.33;74.59;95323.28;5032547;28;20840;-71
2023/04/08 07:37:56;;;;;;;28.77;14.47;;;;;;;8.45;72.86;95332.31;5007182;28;20237;-71
2023/04/08 07:40:22;;;;;;;23.67;13.70;;;;;;;8.48;72.37;95336.34;5032476;28;20627;-71
2023/04/08 07:42:48;;;;;;;23.27;14.20;;;;;;;8.37;72.00;95336.78;5015970;28;20237;-70
2023/04/08 07:45:13;;;;;;;23.00;13.93;;;;;;;8.41;71.63;95333.63;4998988;28;20721;-71
2023/04/08 07:47:39;;;;;;;25.60;14.10;;;;;;;8.46;72.39;95346.16;5017510;28;20230;-71
2023/04/08 07:50:05;;;;;;;24.93;14.87;;;;;;;8.65;72.02;95340.44;5014827;28;20260;-70
2023/04/08 07:52:31;;;;;;;25.70;14.67;;;;;;;8.84;71.62;95342.53;5037739;28;20269;-71
2023/04/08 07:54:56;;;;;;;24.73;14.63;;;;;;;8.92;70.89;95345.06;5013470;28;20265;-72
2023/04/08 07:57:22;;;;;;;26.63;14.27;;;;;;;9.36;70.34;95338.03;5030349;28;20790;-70
2023/04/08 07:59:47;;;;;;;27.20;15.73;;;;;;;9.53;69.45;95346.47;5028808;28;20235;-71
2023/04/08 08:02:13;;;;;;;29.13;15.10;;;;;;;9.55;68.57;95348.94;5013643;28;20242;-71
2023/04/08 08:04:38;;;;;;;31.30;15.47;;;;;;;9.70;68.79;95357.53;5021147;28;20291;-72
2023/04/08 08:07:04;;;;;;;27.67;15.73;;;;;;;9.83;67.92;95349.88;5007568;28;20238;-71
2023/04/08 08:09:30;;;;;;;29.00;15.33;;;;;;;9.93;66.40;95359.03;5005104;28;20222;-71
2023/04/08 08:11:55;;;;;;;25.03;15.00;;;;;;;9.67;68.18;95358.75;5021138;28;20585;-72
2023/04/08 08:14:21;;;;;;;27.07;14.57;;;;;;;9.88;67.24;95360.59;5005957;28;20316;-72
2023/04/08 08:16:48;;;;;;;26.17;14.13;;;;;;;9.58;67.70;95353.81;5015353;28;20320;-72
2023/04/08 08:19:14;;;;;;;24.17;14.13;;;;;;;10.20;68.94;95360.13;5032634;28;20268;-72
2023/04/08 08:21:40;;;;;;;26.27;14.83;;;;;;;10.32;66.18;95356.03;5022477;28;20257;-72
2023/04/08 08:24:05;;;;;;;27.40;14.80;;;;;;;10.19;66.99;95353.31;5006165;28;20670;-72
2023/04/08 08:26:33;;;;;;;26.87;15.43;;;;;;;10.07;65.72;95352.97;5018887;28;20249;-72
2023/04/08 08:28:58;;;;;;;27.77;15.77;;;;;;;10.02;66.07;95355.31;5017275;28;20660;-69
2023/04/08 08:31:24;;;;;;;31.33;15.77;;;;;;;9.85;66.38;95360.94;5030220;28;20226;-70
2023/04/08 08:33:49;;;;;;;27.47;14.87;;;;;;;10.00;67.73;95359.13;5021992;28;20229;-71
2023/04/08 08:36:15;;;;;;;28.60;15.03;;;;;;;9.95;66.50;95364.09;5027835;28;20595;-71
2023/04/08 08:38:40;;;;;;;29.03;15.90;;;;;;;10.00;66.74;95364.34;4999638;28;20680;-71
2023/04/08 08:41:06;;;;;;;28.50;16.03;;;;;;;9.61;67.78;95362.06;5016450;28;20229;-71
2023/04/08 08:43:32;;;;;;;28.13;16.27;;;;;;;10.11;68.49;95364.69;5002705;28;20269;-70
2023/04/08 08:45:58;;;;;;;33.50;16.80;;;;;;;9.42;67.63;95352.19;5008993;28;20230;-71
2023/04/08 08:48:24;;;;;;;26.70;15.03;;;;;;;9.93;67.44;95369.50;4998352;28;20237;-70
2023/04/08 08:50:49;;;;;;;29.57;16.40;;;;;;;9.67;67.51;95360.53;5011720;28;20263;-70
2023/04/08 08:53:15;;;;;;;29.47;16.40;;;;;;;9.87;67.09;95361.56;5014222;28;20270;-71
2023/04/08 08:55:40;;;;;;;32.43;16.17;;;;;;;10.05;67.54;95356.75;4966633;28;1326510;-70
2023/04/08 08:58:09;;;;;;;30.63;16.23;;;;;;;10.11;66.15;95361.22;5026083;28;20294;-70
2023/04/08 09:00:44;;;;;;;32.10;17.47;;;;;;;10.04;66.69;95365.59;5002413;28;20233;-70
2023/04/08 09:03:17;;;;;;;33.43;17.67;;;;;;;9.91;67.20;95368.84;5020679;28;20232;-70
2023/04/08 09:05:53;;;;;;;32.33;17.27;;;;;;;10.01;67.54;95366.75;5016028;28;20253;-71
2023/04/08 09:08:28;;;;;;;32.03;17.07;;;;;;;9.93;66.57;95371.31;5013748;28;20313;-71
2023/04/08 09:10:55;;;;;;;41.47;19.33;;;;;;;9.77;68.35;95366.28;5030388;28;20232;-71
2023/04/08 09:13:23;;;;;;;32.27;17.50;;;;;;;9.92;67.56;95367.06;5015568;28;20597;-71
2023/04/08 09:16:18;;;;;;;32.93;17.40;;;;;;;10.06;67.77;95368.81;5031914;28;20222;-71
2023/04/08 09:18:45;;;;;;;32.97;16.43;;;;;;;9.98;67.13;95371.56;5034128;28;20238;-71
2023/04/08 09:21:12;;;;;;;34.80;17.03;;;;;;;10.23;66.99;95365.00;5017448;28;20234;-71
2023/04/08 09:23:48;;;;;;;33.43;16.53;;;;;;;10.54;65.87;95362.88;5006420;28;20238;-70
2023/04/08 09:26:15;;;;;;;35.30;17.13;;;;;;;10.46;65.48;95363.00;5014153;28;20252;-71
2023/04/08 09:28:41;;;;;;;38.13;17.67;;;;;;;10.88;65.65;95351.69;5030417;28;20240;-71
2023/04/08 09:31:22;;;;;;;29.80;15.87;;;;;;;11.34;63.30;95354.59;5013636;28;20230;-71
2023/04/08 09:33:56;;;;;;;30.73;15.83;;;;;;;11.35;63.04;95361.44;5016852;28;20233;-71
2023/04/08 09:36:22;;;;;;;32.13;15.83;;;;;;;11.62;61.72;95350.09;5000122;28;20678;-70
2023/04/08 09:38:47;;;;;;;30.27;15.77;;;;;;;11.69;61.56;95345.72;5004866;28;20229;-71
2023/04/08 09:41:15;;;;;;;31.40;15.77;;;;;;;11.12;61.72;95353.88;5031984;28;20238;-70
2023/04/08 09:43:51;;;;;;;29.23;15.63;;;;;;;11.11;64.41;95341.75;5015059;28;20233;-71
2023/04/08 09:46:28;;;;;;;31.00;15.90;;;;;;;10.94;63.45;95342.28;5006234;28;20258;-71
2023/04/08 09:49:08;;;;;;;33.03;16.33;;;;;;;11.44;63.42;95345.38;5012410;28;20293;-71
2023/04/08 09:51:39;;;;;;;32.10;16.63;;;;;;;11.18;61.96;95349.66;5015871;28;20264;-70
2023/04/08 09:54:09;;;;;;;31.00;15.37;;;;;;;11.32;61.65;95340.91;5012148;28;20328;-71
2023/04/08 09:56:43;;;;;;;35.63;15.53;;;;;;;11.49;60.70;95337.75;5031883;28;20387;-70
2023/04/08 09:59:16;;;;;;;30.27;15.50;;;;;;;12.30;59.73;95337.84;5023420;28;20237;-71
2023/04/08 10:01:45;;;;;;;27.53;14.87;;;;;;;12.07;59.55;95330.31;5021022;28;20309;-71
2023/04/08 10:04:19;;;;;;;30.37;15.37;;;;;;;11.81;59.79;95328.44;5013504;28;20230;-71
2023/04/08 10:06:44;;;;;;;29.83;14.80;;;;;;;11.84;59.04;95319.34;5043240;28;20739;-70
2023/04/08 10:09:10;;;;;;;27.87;14.90;;;;;;;11.79;59.73;95322.56;5004471;28;20234;-70
2023/04/08 10:11:35;;;;;;;30.27;14.83;;;;;;;11.77;59.99;95327.22;5034735;28;20272;-71
2023/04/08 10:14:01;;;;;;;28.90;14.10;;;;;;;12.43;58.80;95320.28;5033499;28;20300;-71
2023/04/08 10:16:27;;;;;;;24.10;14.17;;;;;;;12.42;59.98;95323.13;5033918;28;20233;-71
2023/04/08 10:18:56;;;;;;;26.37;14.20;;;;;;;11.94;58.51;95320.59;5018843;28;20226;-73
2023/04/08 10:21:38;;;;;;;25.17;14.37;;;;;;;11.94;58.63;95309.31;5020338;28;20222;-70
2023/04/08 10:24:08;;;;;;;28.43;14.03;;;;;;;12.27;58.47;95314.59;5032783;28;20298;-69
2023/04/08 10:26:35;;;;;;;25.30;13.53;;;;;;;11.71;59.00;95308.81;5034254;28;20238;-71
2023/04/08 10:29:27;;;;;;;28.93;14.87;;;;;;;11.92;60.57;95312.13;5001647;28;20237;-70
2023/04/08 10:31:52;;;;;;;27.37;13.77;;;;;;;11.89;58.85;95311.72;5037278;28;20237;-73
2023/04/08 10:34:25;;;;;;;27.33;13.60;;;;;;;11.71;59.00;95312.25;5021778;28;20607;-70
2023/04/08 10:36:51;;;;;;;28.57;14.07;;;;;;;11.79;58.56;95309.47;5006595;28;20229;-70
2023/04/08 10:39:16;;;;;;;25.03;13.50;;;;;;;11.70;58.56;95312.47;5021164;28;20819;-70
2023/04/08 10:41:43;;;;;;;25.93;13.70;;;;;;;11.53;60.04;95304.88;5026760;28;20807;-71
2023/04/08 10:44:21;;;;;;;30.10;14.70;;;;;;;11.39;60.86;95308.44;5034440;28;20260;-70
2023/04/08 10:46:48;;;;;;;28.17;14.30;;;;;;;11.34;61.09;95299.56;5024607;28;20253;-71
2023/04/08 10:49:16;;;;;;;28.87;14.80;;;;;;;11.69;59.67;95305.59;5018546;28;20329;-70
2023/04/08 10:51:43;;;;;;;27.77;13.73;;;;;;;11.31;59.77;95297.34;5003280;28;20225;-70
2023/04/08 10:54:18;;;;;;;24.97;13.70;;;;;;;11.60;58.55;95289.19;5013877;28;20329;-70
2023/04/08 10:56:51;;;;;;;25.17;13.87;;;;;;;12.06;58.65;95284.91;5009713;28;20233;-70
2023/04/08 10:59:26;;;;;;;28.00;14.43;;;;;;;12.24;57.71;95286.94;5012212;28;20729;-70
2023/04/08 11:01:51;;;;;;;26.17;13.80;;;;;;;12.90;56.96;95287.72;5032938;28;20354;-71
2023/04/08 11:04:22;;;;;;;31.67;14.47;;;;;;;13.30;56.69;95285.88;5016850;28;21457;-70
2023/04/08 11:06:47;;;;;;;26.63;14.17;;;;;;;12.65;55.40;95281.50;5015400;28;20270;-69
2023/04/08 11:09:13;;;;;;;29.87;14.47;;;;;;;11.95;57.92;95275.00;5001700;28;20854;-71
2023/04/08 11:11:43;;;;;;;27.83;14.43;;;;;;;12.07;58.53;95270.78;4997961;28;21055;-71
2023/04/08 11:14:08;;;;;;;28.43;14.03;;;;;;;12.35;56.05;95275.03;4996271;28;20593;-71
2023/04/08 11:16:34;;;;;;;24.30;12.93;;;;;;;11.94;55.15;95273.38;5023035;28;20234;-71
2023/04/08 11:19:02;;;;;;;25.43;12.97;;;;;;;12.11;56.42;95272.00;5029573;28;20233;-72
2023/04/08 11:21:28;;;;;;;25.60;11.97;;;;;;;12.29;55.77;95273.22;4998387;28;20229;-70
2023/04/08 11:23:54;;;;;;;25.90;13.70;;;;;;;12.12;57.30;95265.75;5027936;28;20249;-71